createdAt,value
2023-05-19T00:00:53.505Z,9.10
2023-05-19T00:04:02.711Z,9.06
2023-05-19T00:07:05.781Z,9.02
2023-05-19T00:10:08.264Z,9.02
2023-05-19T00:13:10.224Z,9.01
2023-05-19T00:16:12.970Z,9.01
2023-05-19T00:19:14.876Z,9.02
2023-05-19T00:22:16.969Z,8.98
2023-05-19T00:25:18.805Z,9.01
2023-05-19T00:28:20.568Z,9.03
2023-05-19T00:31:22.709Z,9.07
2023-05-19T00:34:24.772Z,9.09
2023-05-19T00:37:26.896Z,9.10
2023-05-19T00:40:31.504Z,9.09
2023-05-19T00:43:34.497Z,9.07
2023-05-19T00:46:36.548Z,9.03
2023-05-19T00:49:38.412Z,9.05
2023-05-19T00:52:40.445Z,9.02
2023-05-19T00:55:43.072Z,9.03
2023-05-19T00:58:48.051Z,8.98
2023-05-19T01:01:55.300Z,8.96
2023-05-19T01:04:57.933Z,8.98
2023-05-19T01:08:00.972Z,8.94
2023-05-19T01:11:03.595Z,8.94
2023-05-19T01:14:06.144Z,8.89
2023-05-19T01:17:10.220Z,8.90
2023-05-19T01:20:38.736Z,8.90
2023-05-19T01:23:52.177Z,8.91
2023-05-19T01:27:12.449Z,8.88
2023-05-19T01:30:52.116Z,8.89
2023-05-19T01:33:57.458Z,8.91
2023-05-19T01:37:01.829Z,8.88
2023-05-19T01:40:04.364Z,8.83
2023-05-19T01:43:10.840Z,8.89
2023-05-19T01:46:13.016Z,8.82
2023-05-19T01:49:14.936Z,8.80
2023-05-19T01:52:19.350Z,8.76
2023-05-19T01:55:23.815Z,8.74
2023-05-19T01:58:45.660Z,8.71
2023-05-19T02:01:57.593Z,8.65
2023-05-19T02:05:29.852Z,8.60
2023-05-19T02:09:04.061Z,8.56
2023-05-19T02:12:17.552Z,8.55
2023-05-19T02:15:27.217Z,8.51
2023-05-19T02:18:30.057Z,8.46
2023-05-19T02:21:33.173Z,8.45
2023-05-19T02:24:35.132Z,8.39
2023-05-19T02:27:38.644Z,8.31
2023-05-19T02:30:41.080Z,8.20
2023-05-19T02:33:43.269Z,8.16
2023-05-19T02:36:45.388Z,8.08
2023-05-19T02:39:48.599Z,8.04
2023-05-19T02:42:50.454Z,7.98
2023-05-19T02:45:52.789Z,7.92
2023-05-19T02:48:55.520Z,7.84
2023-05-19T02:51:57.673Z,7.78
2023-05-19T02:55:00.784Z,7.74
2023-05-19T02:58:02.836Z,7.67
2023-05-19T03:01:08.072Z,7.67
2023-05-19T03:04:09.965Z,7.63
2023-05-19T03:07:13.499Z,7.59
2023-05-19T03:10:15.825Z,7.60
2023-05-19T03:13:17.600Z,7.55
2023-05-19T03:16:19.692Z,7.53
2023-05-19T03:19:22.069Z,7.53
2023-05-19T03:22:24.178Z,7.57
2023-05-19T03:25:30.066Z,7.55
2023-05-19T03:28:32.151Z,7.55
2023-05-19T03:31:34.141Z,7.54
2023-05-19T03:34:36.357Z,7.51
2023-05-19T03:37:38.224Z,7.55
2023-05-19T03:40:41.497Z,7.54
2023-05-19T03:43:46.171Z,7.52
2023-05-19T03:46:51.164Z,7.57
2023-05-19T03:50:11.195Z,7.58
2023-05-19T03:53:26.920Z,7.53
2023-05-19T03:56:28.746Z,7.50
2023-05-19T03:59:31.382Z,7.48
2023-05-19T04:02:33.572Z,7.44
2023-05-19T04:05:35.593Z,7.42
2023-05-19T04:08:37.743Z,7.41
2023-05-19T04:11:40.542Z,7.40
2023-05-19T04:14:42.907Z,7.37
2023-05-19T04:17:48.348Z,7.34
2023-05-19T04:20:51.222Z,7.36
2023-05-19T04:23:54.793Z,7.36
2023-05-19T04:26:56.964Z,7.38
2023-05-19T04:29:59.759Z,7.38
2023-05-19T04:33:05.170Z,7.38
2023-05-19T04:36:10.665Z,7.39
2023-05-19T04:39:15.761Z,7.41
2023-05-19T04:42:26.095Z,7.46
2023-05-19T04:45:29.010Z,7.49
2023-05-19T04:48:34.491Z,7.51
2023-05-19T04:51:36.411Z,7.53
2023-05-19T04:54:39.719Z,7.55
2023-05-19T04:57:42.323Z,7.57
2023-05-19T05:00:44.915Z,7.60
2023-05-19T05:03:50.742Z,7.59
2023-05-19T05:06:52.692Z,7.60
2023-05-19T05:09:56.004Z,7.57
2023-05-19T05:13:00.814Z,7.59
2023-05-19T05:16:06.588Z,7.61
2023-05-19T05:19:09.740Z,7.65
2023-05-19T05:22:13.318Z,7.70
2023-05-19T05:25:16.575Z,7.76
2023-05-19T05:28:19.593Z,7.84
2023-05-19T05:31:22.827Z,7.90
2023-05-19T05:34:25.069Z,7.95
2023-05-19T05:37:27.270Z,8.03
2023-05-19T05:40:29.762Z,8.15
2023-05-19T05:43:32.427Z,8.25
2023-05-19T05:46:38.118Z,8.29
2023-05-19T05:49:40.300Z,8.36
2023-05-19T05:52:47.364Z,8.46
2023-05-19T05:55:51.785Z,8.54
2023-05-19T05:58:54.140Z,8.60
2023-05-19T06:01:56.436Z,8.64
2023-05-19T06:04:59.004Z,8.77
2023-05-19T06:08:01.343Z,8.82
2023-05-19T06:11:09.560Z,8.89
2023-05-19T06:14:13.683Z,8.97
2023-05-19T06:17:38.261Z,9.05
2023-05-19T06:20:40.262Z,9.13
2023-05-19T06:23:42.584Z,9.18
2023-05-19T06:26:46.929Z,9.19
2023-05-19T06:29:48.916Z,9.25
2023-05-19T06:32:51.131Z,9.31
2023-05-19T06:35:53.181Z,9.38
2023-05-19T06:38:56.303Z,9.48
2023-05-19T06:41:58.426Z,9.59
2023-05-19T06:45:22.122Z,9.70
2023-05-19T06:48:26.100Z,9.81
2023-05-19T06:51:28.230Z,9.91
2023-05-19T06:54:32.088Z,10.02
2023-05-19T06:57:34.222Z,10.12
2023-05-19T07:00:37.681Z,10.26
2023-05-19T07:03:43.460Z,10.37
2023-05-19T07:06:47.534Z,10.45
2023-05-19T07:09:49.738Z,10.51
2023-05-19T07:12:53.798Z,10.59
2023-05-19T07:15:58.825Z,10.70
2023-05-19T07:19:04.107Z,10.77
2023-05-19T07:22:06.490Z,10.84
2023-05-19T07:25:16.963Z,10.89
2023-05-19T07:28:22.970Z,10.93
2023-05-19T07:31:26.154Z,11.03
2023-05-19T07:34:29.275Z,11.13
2023-05-19T07:37:31.328Z,11.20
2023-05-19T07:40:33.822Z,11.34
2023-05-19T07:43:39.021Z,11.41
2023-05-19T07:46:41.895Z,11.53
2023-05-19T07:49:51.754Z,11.67
2023-05-19T07:52:55.524Z,11.79
2023-05-19T07:55:59.965Z,11.85
2023-05-19T07:59:02.647Z,11.95
2023-05-19T08:02:04.800Z,12.01
2023-05-19T08:05:12.641Z,12.10
2023-05-19T08:08:17.071Z,12.18
2023-05-19T08:11:19.178Z,12.24
2023-05-19T08:14:28.337Z,12.27
2023-05-19T08:17:31.633Z,12.34
2023-05-19T08:20:35.414Z,12.43
2023-05-19T08:23:49.785Z,12.61
2023-05-19T08:26:52.115Z,12.81
2023-05-19T08:29:55.517Z,12.88
2023-05-19T08:32:58.609Z,12.87
2023-05-19T08:36:08.280Z,12.89
2023-05-19T08:39:11.151Z,12.95
2023-05-19T08:42:16.914Z,12.97
2023-05-19T08:45:20.495Z,13.01
2023-05-19T08:48:23.344Z,13.13
2023-05-19T08:51:32.605Z,13.21
2023-05-19T08:54:47.261Z,13.34
2023-05-19T08:57:51.198Z,13.42
2023-05-19T09:01:03.495Z,13.54
2023-05-19T09:04:10.638Z,13.72
2023-05-19T09:07:19.006Z,13.84
2023-05-19T09:10:35.442Z,13.92
2023-05-19T09:13:38.234Z,14.08
2023-05-19T09:17:16.433Z,14.34
2023-05-19T09:20:27.053Z,14.55
2023-05-19T09:23:34.177Z,14.66
2023-05-19T09:26:40.365Z,14.78
2023-05-19T09:29:45.638Z,14.90
2023-05-19T09:32:59.593Z,14.98
2023-05-19T09:36:05.109Z,15.12
2023-05-19T09:39:18.531Z,15.21
2023-05-19T09:42:38.968Z,15.37
2023-05-19T09:46:14.790Z,15.59
2023-05-19T09:49:31.353Z,15.67
2023-05-19T09:52:39.234Z,15.70
2023-05-19T09:55:42.974Z,15.91
2023-05-19T09:58:48.753Z,16.19
2023-05-19T10:01:55.649Z,16.56
2023-05-19T10:04:57.960Z,16.91
2023-05-19T10:08:00.893Z,17.01
2023-05-19T10:11:05.109Z,16.97
2023-05-19T10:14:08.440Z,17.29
2023-05-19T10:17:12.261Z,17.34
2023-05-19T10:20:17.143Z,17.37
2023-05-19T10:23:19.516Z,17.38
2023-05-19T10:26:23.227Z,17.42
2023-05-19T10:29:43.621Z,17.92
2023-05-19T10:32:48.626Z,18.33
2023-05-19T10:36:18.922Z,18.66
2023-05-19T10:39:37.904Z,19.20
2023-05-19T10:43:12.917Z,19.46
2023-05-19T10:46:16.433Z,19.48
2023-05-19T10:49:24.198Z,19.22
2023-05-19T10:52:30.054Z,18.89
2023-05-19T10:56:04.981Z,18.60
2023-05-19T10:59:07.165Z,18.44
2023-05-19T11:02:09.710Z,18.28
2023-05-19T11:05:18.685Z,18.23
2023-05-19T11:08:34.526Z,18.59
2023-05-19T11:11:54.201Z,18.93
2023-05-19T11:15:01.082Z,19.14
2023-05-19T11:18:07.125Z,19.20
2023-05-19T11:21:16.396Z,19.41
2023-05-19T11:25:06.849Z,19.18
2023-05-19T11:28:23.444Z,18.82
2023-05-19T11:31:28.466Z,18.58
2023-05-19T11:34:39.112Z,18.51
2023-05-19T11:38:00.845Z,18.63
2023-05-19T11:41:10.644Z,18.63
2023-05-19T11:52:32.586Z,19.06
2023-05-19T11:55:41.085Z,19.32
2023-05-19T11:58:43.607Z,19.59
2023-05-19T12:01:53.561Z,19.70
2023-05-19T12:05:10.295Z,19.95
2023-05-19T12:08:19.602Z,19.76
2023-05-19T12:11:25.359Z,19.80
2023-05-19T12:14:31.530Z,20.21
2023-05-19T12:17:34.987Z,20.75
2023-05-19T12:20:38.038Z,21.27
2023-05-19T12:23:44.690Z,21.84
2023-05-19T12:26:54.332Z,21.85
2023-05-19T12:29:57.656Z,21.36
2023-05-19T12:33:03.677Z,20.88
2023-05-19T12:36:08.957Z,21.01
2023-05-19T12:39:11.885Z,21.64
2023-05-19T12:42:16.611Z,21.71
2023-05-19T12:45:23.298Z,21.22
2023-05-19T12:48:25.402Z,21.55
2023-05-19T12:51:27.235Z,22.34
2023-05-19T12:54:33.746Z,23.13
2023-05-19T12:57:37.151Z,23.95
2023-05-19T13:00:50.603Z,24.22
2023-05-19T13:03:53.154Z,24.06
2023-05-19T13:06:55.916Z,24.45
2023-05-19T13:09:57.789Z,24.73
2023-05-19T13:13:00.723Z,24.84
2023-05-19T13:16:02.702Z,24.70
2023-05-19T13:19:06.341Z,24.34
2023-05-19T13:22:11.464Z,23.53
2023-05-19T13:25:23.532Z,22.76
2023-05-19T13:28:26.498Z,22.82
2023-05-19T13:31:29.205Z,23.62
2023-05-19T13:34:31.310Z,24.11
2023-05-19T13:37:33.810Z,23.93
2023-05-19T13:40:37.128Z,23.19
2023-05-19T13:43:39.117Z,22.73
2023-05-19T13:46:45.819Z,23.54
2023-05-19T13:50:04.650Z,24.62
2023-05-19T13:53:06.915Z,25.26
2023-05-19T13:56:09.225Z,25.56
2023-05-19T13:59:12.085Z,25.04
2023-05-19T14:02:20.721Z,24.32
2023-05-19T14:05:24.793Z,23.70
2023-05-19T14:08:31.441Z,23.09
2023-05-19T14:11:34.340Z,22.50
2023-05-19T14:14:36.689Z,22.50
2023-05-19T14:17:38.947Z,23.19
2023-05-19T14:20:41.951Z,24.12
2023-05-19T14:23:45.677Z,24.70
2023-05-19T14:26:48.812Z,24.28
2023-05-19T14:29:51.106Z,23.51
2023-05-19T14:32:55.533Z,22.80
2023-05-19T14:36:05.693Z,22.34
2023-05-19T14:39:07.949Z,22.08
2023-05-19T14:42:10.793Z,21.92
2023-05-19T14:45:13.634Z,21.92
2023-05-19T14:48:16.049Z,22.00
2023-05-19T14:51:19.267Z,22.50
2023-05-19T14:54:21.138Z,22.57
2023-05-19T14:57:23.304Z,22.36
2023-05-19T15:00:27.875Z,22.09
2023-05-19T15:03:30.217Z,21.93
2023-05-19T15:06:33.284Z,21.91
2023-05-19T15:09:36.143Z,21.86
2023-05-19T15:12:38.740Z,21.85
2023-05-19T15:15:40.735Z,22.50
2023-05-19T15:18:42.889Z,23.07
2023-05-19T15:21:45.779Z,23.61
2023-05-19T15:24:48.012Z,24.14
2023-05-19T15:27:51.823Z,24.57
2023-05-19T15:30:56.389Z,24.43
2023-05-19T15:33:58.423Z,24.15
2023-05-19T15:37:00.521Z,23.96
2023-05-19T15:40:05.688Z,23.75
2023-05-19T15:43:08.912Z,23.45
2023-05-19T15:46:13.340Z,23.18
2023-05-19T15:49:15.410Z,22.89
2023-05-19T15:52:17.801Z,22.68
2023-05-19T15:55:23.398Z,22.62
2023-05-19T15:58:25.749Z,22.62
2023-05-19T16:01:28.085Z,22.61
2023-05-19T16:04:30.469Z,22.57
2023-05-19T16:07:32.852Z,22.51
2023-05-19T16:10:35.325Z,22.37
2023-05-19T16:13:38.034Z,22.22
2023-05-19T16:16:40.316Z,22.00
2023-05-19T16:19:46.679Z,21.97
2023-05-19T16:22:51.873Z,22.34
2023-05-19T16:25:54.929Z,24.56
2023-05-19T16:28:57.068Z,25.12
2023-05-19T16:31:59.194Z,23.90
2023-05-19T16:35:02.358Z,22.87
2023-05-19T16:38:04.581Z,22.20
2023-05-19T16:41:07.323Z,21.78
2023-05-19T16:44:14.649Z,21.46
2023-05-19T16:47:17.044Z,21.22
2023-05-19T16:50:21.950Z,20.99
2023-05-19T16:53:24.039Z,20.84
2023-05-19T16:56:25.980Z,20.65
2023-05-19T16:59:28.391Z,20.53
2023-05-19T17:02:31.151Z,20.42
2023-05-19T17:05:35.970Z,20.30
2023-05-19T17:08:38.690Z,20.32
2023-05-19T17:11:42.383Z,20.35
2023-05-19T17:14:45.194Z,20.23
2023-05-19T17:17:50.788Z,20.15
2023-05-19T17:20:55.508Z,20.09
2023-05-19T17:23:58.603Z,20.05
2023-05-19T17:27:05.495Z,19.98
2023-05-19T17:30:09.263Z,19.91
2023-05-19T17:33:11.285Z,19.81
2023-05-19T17:36:13.988Z,19.71
2023-05-19T17:39:16.578Z,19.62
2023-05-19T17:42:31.291Z,19.45
2023-05-19T17:45:42.020Z,19.30
2023-05-19T17:52:20.882Z,19.00
2023-05-19T17:55:33.518Z,18.82
2023-05-19T17:58:43.776Z,18.69
2023-05-19T18:02:11.930Z,18.57
2023-05-19T18:05:23.025Z,18.44
2023-05-19T18:08:35.626Z,18.33
2023-05-19T18:11:55.804Z,18.22
2023-05-19T18:18:48.386Z,18.08
2023-05-19T18:22:20.532Z,18.02
2023-05-19T18:29:23.565Z,17.81
2023-05-19T18:33:19.352Z,17.74
2023-05-19T18:45:13.774Z,17.08
2023-05-19T19:20:30.545Z,15.62
2023-05-19T19:25:09.079Z,15.45
2023-05-19T19:28:43.768Z,15.25
2023-05-19T19:32:34.558Z,15.12
2023-05-19T19:36:26.592Z,14.96
2023-05-19T19:43:44.100Z,14.77
2023-05-19T19:47:13.221Z,14.71
2023-05-19T19:50:33.562Z,14.65
2023-05-19T19:53:51.184Z,14.58
2023-05-19T19:57:01.934Z,14.53
2023-05-19T20:00:08.664Z,14.51
2023-05-19T20:03:12.635Z,14.49
2023-05-19T20:06:19.181Z,14.44
2023-05-19T20:09:22.062Z,14.39
2023-05-19T20:12:31.756Z,14.33
2023-05-19T20:15:55.261Z,14.25
2023-05-19T20:19:10.850Z,14.19
2023-05-19T20:22:23.012Z,14.13
2023-05-19T20:25:29.088Z,14.07
2023-05-19T20:28:35.046Z,13.97
2023-05-19T20:31:41.309Z,13.87
2023-05-19T20:38:04.227Z,13.75
2023-05-19T20:41:06.847Z,13.72
2023-05-19T20:44:18.802Z,13.64
2023-05-19T20:47:29.767Z,13.57
2023-05-19T20:50:36.109Z,13.52
2023-05-19T20:53:42.529Z,13.50
2023-05-19T20:56:44.973Z,13.47
2023-05-19T20:59:50.520Z,13.42
2023-05-19T21:02:56.620Z,13.39
2023-05-19T21:06:06.746Z,13.33
2023-05-19T21:09:11.852Z,13.27
2023-05-19T21:12:17.411Z,13.25
2023-05-19T21:15:24.925Z,13.27
2023-05-19T21:18:40.025Z,13.24
2023-05-19T21:21:45.057Z,13.22
2023-05-19T21:24:52.197Z,13.22
2023-05-19T21:27:56.283Z,13.13
2023-05-19T21:31:01.780Z,13.08
2023-05-19T21:34:07.099Z,13.05
2023-05-19T21:37:11.973Z,13.01
2023-05-19T21:40:15.155Z,12.97
2023-05-19T21:43:19.661Z,12.95
2023-05-19T21:46:22.126Z,12.97
2023-05-19T21:49:24.704Z,12.92
2023-05-19T21:52:27.232Z,12.97
2023-05-19T21:55:32.271Z,12.99
2023-05-19T21:58:38.247Z,13.00
2023-05-19T22:01:41.933Z,12.99
2023-05-19T22:04:45.083Z,12.97
2023-05-19T22:07:48.637Z,12.95
2023-05-19T22:10:56.077Z,12.89
2023-05-19T22:14:00.534Z,12.88
2023-05-19T22:17:05.094Z,12.84
2023-05-19T22:20:08.490Z,12.78
2023-05-19T22:23:10.917Z,12.76
2023-05-19T22:26:13.051Z,12.68
2023-05-19T22:29:18.588Z,12.65
2023-05-19T22:32:21.356Z,12.66
2023-05-19T22:35:23.780Z,12.62
2023-05-19T22:38:26.126Z,12.57
2023-05-19T22:41:28.543Z,12.48
2023-05-19T22:44:36.499Z,12.42
2023-05-19T22:47:38.980Z,12.41
2023-05-19T22:50:46.359Z,12.36
2023-05-19T22:53:49.372Z,12.35
2023-05-19T22:56:54.991Z,12.31
2023-05-19T23:00:06.497Z,12.26
2023-05-19T23:03:09.266Z,12.20
2023-05-19T23:06:11.843Z,12.17
2023-05-19T23:09:15.427Z,12.13
2023-05-19T23:12:17.946Z,12.14
2023-05-19T23:15:20.368Z,12.11
2023-05-19T23:18:25.206Z,12.06
2023-05-19T23:21:27.219Z,12.07
2023-05-19T23:24:29.572Z,12.06
2023-05-19T23:27:31.741Z,12.05
2023-05-19T23:30:37.176Z,12.05
2023-05-19T23:33:39.803Z,12.05
2023-05-19T23:36:43.027Z,12.00
2023-05-19T23:39:45.535Z,11.99
2023-05-19T23:42:47.601Z,11.98
2023-05-19T23:45:50.221Z,11.92
2023-05-19T23:48:52.484Z,11.89
2023-05-19T23:51:54.684Z,11.89
2023-05-19T23:54:57.311Z,11.91
2023-05-19T23:58:03.651Z,11.90
